createdAt,value
2023-04-18T00:09:09.073Z,80.76
2023-04-18T00:18:43.037Z,82.06
2023-04-18T00:28:18.254Z,82.19
2023-04-18T00:37:50.440Z,81.04
2023-04-18T00:47:26.209Z,80.33
2023-04-18T00:57:00.237Z,80.11
2023-04-18T01:06:32.538Z,79.76
2023-04-18T01:16:06.584Z,79.41
2023-04-18T01:25:42.439Z,80.36
2023-04-18T01:35:14.023Z,80.43
2023-04-18T01:44:48.034Z,80.47
2023-04-18T01:54:23.496Z,81.41
2023-04-18T02:03:55.896Z,81.94
2023-04-18T02:13:29.410Z,82.12
2023-04-18T02:23:02.736Z,82.52
2023-04-18T02:32:36.570Z,83.09
2023-04-18T02:42:11.784Z,84.12
2023-04-18T02:51:44.612Z,85.41
2023-04-18T03:01:16.151Z,86.77
2023-04-18T03:10:49.494Z,87.55
2023-04-18T03:20:23.489Z,88.24
2023-04-18T03:29:57.070Z,89.26
2023-04-18T03:39:31.088Z,90.35
2023-04-18T03:49:04.946Z,91.13
2023-04-18T03:58:40.216Z,91.50
2023-04-18T04:08:12.091Z,92.80
2023-04-18T04:17:47.222Z,93.95
2023-04-18T04:27:19.095Z,95.23
2023-04-18T04:36:52.558Z,96.43
2023-04-18T04:46:25.648Z,98.02
2023-04-18T04:56:00.707Z,99.17
2023-04-18T05:05:34.296Z,100.00
2023-04-18T05:15:06.683Z,100.00
2023-04-18T05:24:40.251Z,100.00
2023-04-18T05:34:13.754Z,99.79
2023-04-18T05:43:58.074Z,98.42
2023-04-18T05:53:20.573Z,94.81
2023-04-18T06:02:55.139Z,91.84
2023-04-18T06:12:30.207Z,90.20
2023-04-18T06:22:02.958Z,88.65
2023-04-18T06:23:07.036Z,88.35
2023-04-18T06:32:40.306Z,86.60
2023-04-18T06:33:42.605Z,86.58
2023-04-18T06:34:45.066Z,86.58
2023-04-18T06:35:47.631Z,86.63
2023-04-18T06:36:51.555Z,85.96
2023-04-18T06:46:22.192Z,87.27
2023-04-18T06:47:26.257Z,86.61
2023-04-18T06:48:28.556Z,87.47
2023-04-18T06:49:32.628Z,87.94
2023-04-18T06:50:35.066Z,86.85
2023-04-18T06:51:39.163Z,86.00
2023-04-18T06:52:41.393Z,85.28
2023-04-18T06:53:43.852Z,85.02
2023-04-18T07:03:16.566Z,85.13
2023-04-18T07:04:20.574Z,86.22
2023-04-18T07:05:22.691Z,85.51
2023-04-18T07:06:25.158Z,84.00
2023-04-18T07:07:29.216Z,83.31
2023-04-18T07:08:33.090Z,83.64
2023-04-18T07:09:37.166Z,83.39
2023-04-18T07:10:39.464Z,83.43
2023-04-18T07:11:43.653Z,82.99
2023-04-18T07:12:47.521Z,82.65
2023-04-18T07:13:51.400Z,83.35
2023-04-18T07:14:55.547Z,83.74
2023-04-18T07:15:57.672Z,83.09
2023-04-18T07:17:00.306Z,82.99
2023-04-18T07:18:02.757Z,82.70
2023-04-18T07:19:06.816Z,81.80
2023-04-18T07:20:12.216Z,82.16
2023-04-18T07:21:15.058Z,82.41
2023-04-18T07:22:17.342Z,82.71
2023-04-18T07:23:19.687Z,81.88
2023-04-18T07:24:22.252Z,82.42
2023-04-18T07:25:24.929Z,82.75
2023-04-18T07:26:28.982Z,83.18
2023-04-18T07:27:32.971Z,82.43
2023-04-18T07:28:37.047Z,82.58
2023-04-18T07:29:40.827Z,83.21
2023-04-18T07:30:43.397Z,82.34
2023-04-18T07:31:47.340Z,82.64
2023-04-18T07:32:49.766Z,83.82
2023-04-18T07:33:53.645Z,83.24
2023-04-18T07:43:24.677Z,83.66
2023-04-18T07:44:27.037Z,83.42
2023-04-18T07:45:29.457Z,82.82
2023-04-18T07:46:32.505Z,82.42
2023-04-18T07:47:36.704Z,82.14
2023-04-18T07:48:40.489Z,81.14
2023-04-18T07:49:42.739Z,81.38
2023-04-18T07:50:46.776Z,81.07
2023-04-18T07:51:50.652Z,80.85
2023-04-18T07:52:52.885Z,80.62
2023-04-18T07:53:56.891Z,81.58
2023-04-18T07:55:00.842Z,81.16
2023-04-18T07:56:03.094Z,81.46
2023-04-18T07:57:07.204Z,81.04
2023-04-18T07:58:11.216Z,80.56
2023-04-18T07:59:13.831Z,80.20
2023-04-18T08:00:16.025Z,80.64
2023-04-18T08:01:18.473Z,80.63
2023-04-18T08:02:22.639Z,80.42
2023-04-18T08:03:25.019Z,80.36
2023-04-18T08:04:29.879Z,80.28
2023-04-18T08:05:29.839Z,80.49
2023-04-18T08:06:32.238Z,80.63
2023-04-18T08:07:34.596Z,80.45
2023-04-18T08:08:38.636Z,79.81
2023-04-18T08:09:40.927Z,80.36
2023-04-18T08:10:43.343Z,80.01
2023-04-18T08:11:45.834Z,81.05
2023-04-18T08:12:48.203Z,80.96
2023-04-18T08:13:50.630Z,79.60
2023-04-18T08:14:54.650Z,80.13
2023-04-18T08:15:56.994Z,79.70
2023-04-18T08:17:00.912Z,79.23
2023-04-18T08:18:03.254Z,78.99
2023-04-18T08:19:05.670Z,80.21
2023-04-18T08:20:09.654Z,79.09
2023-04-18T08:21:13.547Z,79.16
2023-04-18T08:22:17.454Z,80.02
2023-04-18T08:23:19.786Z,78.92
2023-04-18T08:24:23.783Z,77.70
2023-04-18T08:25:26.025Z,78.14
2023-04-18T08:26:30.065Z,78.72
2023-04-18T08:27:32.323Z,78.13
2023-04-18T08:28:36.317Z,77.95
2023-04-18T08:29:38.551Z,78.31
2023-04-18T08:30:40.947Z,77.79
2023-04-18T08:31:43.420Z,77.34
2023-04-18T08:32:45.844Z,77.89
2023-04-18T08:33:49.814Z,78.40
2023-04-18T08:34:52.142Z,78.85
2023-04-18T08:35:54.538Z,78.91
2023-04-18T08:36:56.970Z,78.71
2023-04-18T08:38:01.055Z,78.48
2023-04-18T08:39:03.385Z,78.53
2023-04-18T08:40:07.454Z,78.43
2023-04-18T08:41:11.294Z,78.73
2023-04-18T08:42:13.504Z,77.54
2023-04-18T08:43:15.957Z,77.40
2023-04-18T08:44:19.975Z,78.36
2023-04-18T08:45:23.894Z,78.40
2023-04-18T08:46:26.169Z,78.75
2023-04-18T08:47:28.550Z,78.85
2023-04-18T08:48:31.005Z,78.79
2023-04-18T08:49:35.197Z,79.25
2023-04-18T08:50:37.453Z,79.14
2023-04-18T08:51:41.455Z,78.92
2023-04-18T08:52:45.333Z,79.05
2023-04-18T08:53:49.213Z,79.00
2023-04-18T08:54:51.516Z,79.64
2023-04-18T08:55:53.931Z,78.76
2023-04-18T08:56:58.005Z,78.19
2023-04-18T08:58:02.005Z,77.75
2023-04-18T08:59:04.306Z,77.88
2023-04-18T09:00:06.654Z,79.13
2023-04-18T09:01:09.163Z,78.83
2023-04-18T09:02:13.169Z,78.85
2023-04-18T09:03:17.084Z,79.15
2023-04-18T09:04:20.900Z,79.46
2023-04-18T09:05:23.196Z,80.26
2023-04-18T09:06:26.116Z,79.56
2023-04-18T09:07:29.707Z,78.42
2023-04-18T09:08:33.566Z,77.84
2023-04-18T09:09:35.855Z,78.05
2023-04-18T09:10:38.257Z,78.09
2023-04-18T09:11:40.713Z,78.07
2023-04-18T09:12:44.789Z,77.96
2023-04-18T09:13:48.666Z,77.07
2023-04-18T09:14:52.588Z,77.33
2023-04-18T09:15:54.826Z,77.12
2023-04-18T09:16:57.244Z,77.05
2023-04-18T09:17:59.764Z,77.00
2023-04-18T09:19:05.769Z,77.06
2023-04-18T09:20:06.003Z,77.37
2023-04-18T09:21:08.342Z,77.70
2023-04-18T09:22:12.448Z,77.42
2023-04-18T09:23:14.944Z,77.74
2023-04-18T09:24:18.696Z,78.03
2023-04-18T09:25:20.923Z,78.35
2023-04-18T09:26:24.930Z,77.30
2023-04-18T09:27:27.285Z,77.55
2023-04-18T09:28:29.672Z,78.30
2023-04-18T09:29:33.836Z,79.78
2023-04-18T09:30:36.032Z,79.18
2023-04-18T09:31:40.072Z,77.72
2023-04-18T09:32:42.367Z,76.87
2023-04-18T09:33:46.288Z,78.17
2023-04-18T09:34:50.243Z,77.77
2023-04-18T09:35:54.092Z,77.59
2023-04-18T09:36:58.028Z,77.52
2023-04-18T09:38:00.253Z,77.92
2023-04-18T09:39:04.274Z,76.51
2023-04-18T09:40:06.583Z,77.57
2023-04-18T09:41:09.017Z,75.88
2023-04-18T09:42:11.479Z,75.87
2023-04-18T09:43:13.911Z,76.67
2023-04-18T09:44:18.214Z,78.06
2023-04-18T09:45:21.909Z,75.30
2023-04-18T09:46:24.250Z,75.48
2023-04-18T09:47:28.252Z,75.49
2023-04-18T09:48:32.150Z,75.75
2023-04-18T09:49:35.963Z,76.99
2023-04-18T09:50:43.948Z,78.51
2023-04-18T09:51:45.982Z,79.07
2023-04-18T09:52:49.971Z,73.52
2023-04-18T09:53:52.247Z,74.61
2023-04-18T09:54:56.260Z,72.90
2023-04-18T09:55:58.681Z,71.88
2023-04-18T09:57:01.022Z,71.62
2023-04-18T09:58:03.478Z,71.99
2023-04-18T09:59:07.544Z,73.71
2023-04-18T10:00:09.826Z,72.67
2023-04-18T10:01:13.949Z,72.02
2023-04-18T10:02:16.200Z,72.26
2023-04-18T10:03:20.380Z,73.94
2023-04-18T10:04:24.172Z,71.60
2023-04-18T10:05:28.032Z,71.84
2023-04-18T10:06:30.353Z,71.57
2023-04-18T10:07:32.761Z,71.73
2023-04-18T10:08:35.253Z,70.75
2023-04-18T10:09:39.359Z,70.84
2023-04-18T10:10:41.594Z,72.01
2023-04-18T10:11:44.096Z,73.17
2023-04-18T10:12:46.427Z,73.19
2023-04-18T10:13:50.519Z,72.87
2023-04-18T10:14:52.858Z,72.32
2023-04-18T10:24:24.893Z,74.88
2023-04-18T10:25:28.989Z,75.47
2023-04-18T10:26:31.325Z,74.94
2023-04-18T10:27:33.832Z,72.43
2023-04-18T10:28:39.118Z,72.71
2023-04-18T10:29:40.300Z,74.99
2023-04-18T10:30:42.736Z,73.18
2023-04-18T10:31:46.840Z,71.01
2023-04-18T10:32:50.695Z,72.33
2023-04-18T10:34:03.635Z,72.44
2023-04-18T10:34:57.075Z,71.81
2023-04-18T10:35:59.439Z,69.42
2023-04-18T10:37:03.525Z,69.65
2023-04-18T10:38:08.535Z,70.58
2023-04-18T10:39:10.845Z,70.69
2023-04-18T10:40:13.320Z,69.75
2023-04-18T10:41:15.615Z,70.00
2023-04-18T10:42:18.099Z,68.54
2023-04-18T10:43:22.125Z,66.66
2023-04-18T10:44:24.457Z,66.01
2023-04-18T10:45:26.867Z,65.85
2023-04-18T10:46:32.104Z,67.10
2023-04-18T10:47:33.394Z,66.31
2023-04-18T10:48:38.490Z,67.77
2023-04-18T10:49:39.560Z,67.03
2023-04-18T10:50:43.543Z,65.31
2023-04-18T10:51:45.826Z,65.01
2023-04-18T10:52:49.845Z,64.79
2023-04-18T10:53:52.181Z,64.29
2023-04-18T10:54:55.562Z,64.92
2023-04-18T10:55:57.093Z,65.43
2023-04-18T10:56:59.547Z,65.07
2023-04-18T10:58:03.552Z,65.43
2023-04-18T10:59:05.847Z,65.68
2023-04-18T11:00:09.350Z,64.29
2023-04-18T11:01:13.203Z,66.68
2023-04-18T11:02:17.167Z,66.96
2023-04-18T11:03:21.168Z,66.67
2023-04-18T11:04:23.447Z,67.41
2023-04-18T11:05:25.839Z,67.96
2023-04-18T11:06:29.902Z,65.81
2023-04-18T11:07:32.138Z,63.53
2023-04-18T11:08:34.564Z,65.16
2023-04-18T11:09:38.613Z,63.50
2023-04-18T11:10:42.464Z,65.31
2023-04-18T11:11:46.349Z,63.63
2023-04-18T11:12:48.644Z,63.75
2023-04-18T11:13:51.109Z,64.72
2023-04-18T11:14:53.543Z,65.08
2023-04-18T11:15:55.916Z,67.43
2023-04-18T11:17:00.060Z,67.10
2023-04-18T11:18:02.279Z,64.96
2023-04-18T11:19:06.343Z,66.06
2023-04-18T11:20:10.252Z,63.97
2023-04-18T11:21:12.563Z,63.81
2023-04-18T11:22:14.968Z,66.25
2023-04-18T11:23:17.493Z,65.36
2023-04-18T11:24:21.476Z,63.33
2023-04-18T11:25:23.827Z,65.27
2023-04-18T11:26:26.275Z,65.59
2023-04-18T11:27:28.720Z,63.77
2023-04-18T11:28:31.165Z,62.50
2023-04-18T11:29:33.652Z,60.60
2023-04-18T11:30:37.699Z,61.92
2023-04-18T11:31:41.643Z,61.93
2023-04-18T11:32:45.488Z,62.29
2023-04-18T11:33:47.840Z,62.77
2023-04-18T11:34:51.885Z,63.51
2023-04-18T11:35:54.232Z,64.12
2023-04-18T11:36:58.295Z,63.63
2023-04-18T11:38:00.553Z,65.09
2023-04-18T11:39:04.577Z,63.59
2023-04-18T11:40:06.933Z,62.05
2023-04-18T11:41:09.417Z,62.38
2023-04-18T11:42:13.425Z,62.38
2023-04-18T11:43:15.728Z,63.61
2023-04-18T11:44:18.158Z,64.12
2023-04-18T11:45:20.576Z,64.42
2023-04-18T11:46:24.655Z,64.20
2023-04-18T11:47:27.066Z,64.36
2023-04-18T11:48:31.065Z,61.44
2023-04-18T11:49:33.400Z,65.64
2023-04-18T11:50:37.419Z,62.56
2023-04-18T11:51:39.759Z,61.69
2023-04-18T11:52:42.262Z,63.70
2023-04-18T11:53:46.236Z,60.17
2023-04-18T11:54:48.525Z,61.72
2023-04-18T11:55:51.001Z,61.27
2023-04-18T11:56:53.469Z,63.73
2023-04-18T11:57:57.628Z,62.01
2023-04-18T11:59:01.591Z,60.71
2023-04-18T12:00:04.095Z,57.41
2023-04-18T12:01:06.499Z,59.18
2023-04-18T12:02:15.952Z,59.53
2023-04-18T12:03:13.434Z,57.92
2023-04-18T12:04:15.819Z,56.68
2023-04-18T12:05:17.926Z,57.61
2023-04-18T12:06:20.205Z,59.17
2023-04-18T12:07:22.615Z,59.24
2023-04-18T12:08:26.696Z,54.92
2023-04-18T12:09:29.044Z,56.07
2023-04-18T12:10:31.461Z,59.73
2023-04-18T12:11:35.453Z,55.22
2023-04-18T12:12:39.421Z,55.04
2023-04-18T12:13:43.314Z,54.11
2023-04-18T12:14:47.227Z,56.37
2023-04-18T12:15:49.616Z,58.12
2023-04-18T12:16:53.617Z,53.46
2023-04-18T12:17:57.540Z,55.11
2023-04-18T12:19:01.496Z,57.09
2023-04-18T12:20:03.822Z,52.35
2023-04-18T12:21:07.771Z,53.48
2023-04-18T12:22:11.699Z,54.22
2023-04-18T12:23:15.601Z,54.87
2023-04-18T12:24:19.398Z,55.55
2023-04-18T12:25:23.492Z,56.44
2023-04-18T12:26:24.147Z,57.62
2023-04-18T12:27:28.191Z,57.18
2023-04-18T12:28:30.548Z,58.62
2023-04-18T12:29:34.560Z,58.10
2023-04-18T12:30:37.711Z,58.64
2023-04-18T12:31:39.396Z,58.77
2023-04-18T12:32:41.846Z,57.54
2023-04-18T12:33:44.323Z,58.60
2023-04-18T12:34:46.686Z,59.94
2023-04-18T12:35:49.658Z,58.80
2023-04-18T12:36:53.212Z,59.70
2023-04-18T12:37:57.120Z,61.03
2023-04-18T12:38:59.458Z,60.99
2023-04-18T12:40:01.962Z,60.28
2023-04-18T12:41:04.414Z,60.67
2023-04-18T12:42:08.414Z,59.50
2023-04-18T12:43:10.773Z,61.51
2023-04-18T12:44:13.396Z,63.13
2023-04-18T12:45:17.245Z,59.42
2023-04-18T12:46:21.205Z,59.26
2023-04-18T12:47:23.484Z,60.05
2023-04-18T12:48:25.884Z,58.68
2023-04-18T12:49:29.891Z,58.84
2023-04-18T12:50:32.225Z,59.24
2023-04-18T12:51:34.629Z,58.64
2023-04-18T12:52:37.051Z,59.25
2023-04-18T12:53:41.086Z,59.57
2023-04-18T12:54:43.408Z,61.92
2023-04-18T12:55:45.875Z,58.63
2023-04-18T12:56:48.290Z,59.71
2023-04-18T12:57:50.737Z,59.63
2023-04-18T12:58:53.194Z,60.90
2023-04-18T12:59:57.252Z,61.72
2023-04-18T13:01:01.227Z,59.77
2023-04-18T13:02:05.127Z,61.47
2023-04-18T13:03:07.416Z,62.07
2023-04-18T13:04:12.791Z,60.33
2023-04-18T13:05:13.682Z,60.62
2023-04-18T13:06:16.067Z,61.29
2023-04-18T13:07:20.164Z,61.75
2023-04-18T13:08:22.464Z,61.82
2023-04-18T13:09:24.866Z,62.34
2023-04-18T13:10:28.871Z,63.02
2023-04-18T13:11:31.228Z,62.55
2023-04-18T13:12:33.635Z,62.65
2023-04-18T13:13:36.075Z,62.77
2023-04-18T13:14:38.521Z,62.97
2023-04-18T13:15:42.589Z,63.35
2023-04-18T13:16:45.063Z,63.17
2023-04-18T13:17:48.956Z,63.06
2023-04-18T13:18:52.864Z,63.11
2023-04-18T13:19:55.093Z,63.61
2023-04-18T13:20:59.194Z,63.67
2023-04-18T13:22:01.540Z,64.07
2023-04-18T13:23:05.523Z,63.74
2023-04-18T13:24:07.838Z,63.54
2023-04-18T13:25:10.330Z,62.94
2023-04-18T13:26:12.751Z,63.99
2023-04-18T13:27:15.259Z,63.97
2023-04-18T13:28:19.364Z,61.04
2023-04-18T13:29:21.658Z,61.77
2023-04-18T13:30:24.159Z,59.72
2023-04-18T13:31:28.217Z,60.42
2023-04-18T13:32:30.728Z,59.21
2023-04-18T13:33:34.761Z,60.22
2023-04-18T13:34:38.655Z,59.36
2023-04-18T13:35:40.992Z,60.19
2023-04-18T13:36:45.071Z,59.52
2023-04-18T13:37:47.468Z,57.96
2023-04-18T13:38:51.532Z,58.14
2023-04-18T13:39:53.817Z,57.94
2023-04-18T13:41:08.791Z,57.49
2023-04-18T13:41:58.739Z,56.91
2023-04-18T13:43:01.172Z,56.62
2023-04-18T13:44:05.259Z,56.46
2023-04-18T13:45:09.250Z,58.11
2023-04-18T13:46:13.211Z,57.52
2023-04-18T13:47:17.070Z,56.28
2023-04-18T13:48:19.381Z,55.37
2023-04-18T13:49:21.814Z,55.65
2023-04-18T13:50:24.312Z,56.29
2023-04-18T13:51:26.781Z,57.46
2023-04-18T13:52:29.210Z,57.33
2023-04-18T13:53:33.250Z,56.07
2023-04-18T13:54:35.582Z,57.73
2023-04-18T13:55:39.633Z,57.09
2023-04-18T13:56:41.929Z,56.74
2023-04-18T13:57:44.427Z,56.62
2023-04-18T13:58:49.428Z,55.66
2023-04-18T13:59:53.748Z,56.88
2023-04-18T14:00:57.673Z,56.16
2023-04-18T14:01:59.990Z,57.25
2023-04-18T14:03:02.621Z,58.25
2023-04-18T14:04:06.770Z,56.01
2023-04-18T14:05:09.008Z,56.98
2023-04-18T14:06:11.304Z,54.88
2023-04-18T14:07:15.346Z,55.72
2023-04-18T14:08:19.298Z,55.37
2023-04-18T14:09:21.589Z,56.69
2023-04-18T14:10:23.962Z,57.33
2023-04-18T14:11:26.491Z,56.16
2023-04-18T14:12:28.946Z,56.26
2023-04-18T14:13:31.509Z,57.63
2023-04-18T14:14:33.923Z,56.29
2023-04-18T14:15:36.376Z,59.20
2023-04-18T14:16:40.442Z,57.99
2023-04-18T14:17:44.812Z,55.12
2023-04-18T14:18:45.237Z,55.00
2023-04-18T14:19:47.671Z,53.92
2023-04-18T14:20:50.196Z,57.03
2023-04-18T14:21:52.705Z,56.17
2023-04-18T14:22:56.782Z,55.70
2023-04-18T14:24:00.656Z,56.13
2023-04-18T14:25:04.639Z,56.50
2023-04-18T14:26:06.887Z,54.63
2023-04-18T14:27:10.961Z,54.80
2023-04-18T14:28:13.331Z,54.65
2023-04-18T14:29:15.972Z,55.10
2023-04-18T14:30:18.211Z,55.19
2023-04-18T14:31:22.299Z,56.04
2023-04-18T14:32:24.602Z,55.42
2023-04-18T14:33:27.021Z,55.44
2023-04-18T14:34:32.714Z,54.13
2023-04-18T14:35:35.009Z,54.58
2023-04-18T14:36:37.337Z,56.15
2023-04-18T14:37:39.765Z,56.65
2023-04-18T14:38:43.782Z,55.79
2023-04-18T14:39:47.657Z,53.68
2023-04-18T14:40:50.011Z,53.87
2023-04-18T14:41:54.234Z,53.62
2023-04-18T14:42:56.499Z,55.15
2023-04-18T14:44:00.554Z,55.19
2023-04-18T14:45:02.867Z,53.84
2023-04-18T14:46:06.905Z,54.92
2023-04-18T14:47:09.352Z,54.90
2023-04-18T14:48:11.624Z,55.05
2023-04-18T14:49:14.201Z,56.37
2023-04-18T14:50:16.507Z,55.92
2023-04-18T14:51:18.980Z,54.98
2023-04-18T14:52:23.130Z,52.58
2023-04-18T14:53:25.387Z,52.64
2023-04-18T14:54:27.768Z,52.65
2023-04-18T14:55:30.289Z,53.58
2023-04-18T14:56:34.339Z,54.39
2023-04-18T14:57:36.625Z,54.24
2023-04-18T14:58:40.634Z,55.17
2023-04-18T14:59:42.961Z,56.52
2023-04-18T15:00:45.446Z,57.02
2023-04-18T15:01:47.992Z,56.23
2023-04-18T15:02:52.131Z,57.19
2023-04-18T15:03:54.485Z,57.43
2023-04-18T15:04:58.632Z,57.45
2023-04-18T15:06:00.735Z,57.52
2023-04-18T15:07:03.125Z,59.62
2023-04-18T15:08:05.607Z,60.80
2023-04-18T15:09:08.028Z,59.27
2023-04-18T15:10:10.504Z,59.44
2023-04-18T15:11:12.914Z,59.84
2023-04-18T15:12:15.329Z,60.09
2023-04-18T15:13:19.416Z,60.87
2023-04-18T15:14:21.766Z,60.34
2023-04-18T15:15:24.117Z,59.66
2023-04-18T15:16:26.570Z,60.45
2023-04-18T15:17:28.996Z,59.51
2023-04-18T15:18:33.047Z,61.17
2023-04-18T15:19:35.498Z,60.33
2023-04-18T15:20:37.831Z,61.37
2023-04-18T15:21:40.235Z,60.76
2023-04-18T15:22:42.705Z,60.61
2023-04-18T15:23:45.180Z,61.04
2023-04-18T15:24:47.672Z,61.81
2023-04-18T15:25:50.185Z,61.55
2023-04-18T15:26:52.509Z,62.09
2023-04-18T15:27:54.932Z,61.14
2023-04-18T15:28:57.426Z,61.53
2023-04-18T15:29:59.785Z,62.02
2023-04-18T15:31:03.819Z,62.09
2023-04-18T15:32:06.294Z,62.33
2023-04-18T15:33:08.686Z,62.42
2023-04-18T15:34:11.190Z,62.03
2023-04-18T15:35:13.564Z,61.08
2023-04-18T15:36:16.080Z,61.04
2023-04-18T15:37:18.493Z,60.31
2023-04-18T15:38:20.967Z,62.64
2023-04-18T15:39:23.377Z,60.90
2023-04-18T15:40:25.932Z,62.18
2023-04-18T15:41:28.325Z,60.72
2023-04-18T15:42:33.690Z,60.47
2023-04-18T15:43:35.850Z,59.54
2023-04-18T15:44:39.889Z,61.24
2023-04-18T15:45:42.230Z,61.31
2023-04-18T15:46:46.266Z,62.99
2023-04-18T15:47:48.711Z,60.48
2023-04-18T15:48:51.133Z,60.94
2023-04-18T15:49:55.169Z,59.16
2023-04-18T15:50:59.152Z,56.50
2023-04-18T15:52:01.564Z,56.57
2023-04-18T15:53:03.950Z,55.27
2023-04-18T15:54:08.055Z,55.38
2023-04-18T15:55:11.913Z,53.96
2023-04-18T15:56:14.139Z,53.74
2023-04-18T15:57:16.613Z,53.58
2023-04-18T15:58:19.205Z,53.15
2023-04-18T15:59:23.248Z,53.74
2023-04-18T16:00:25.606Z,53.92
2023-04-18T16:01:30.794Z,53.64
2023-04-18T16:02:33.070Z,53.82
2023-04-18T16:03:35.477Z,55.27
2023-04-18T16:04:39.511Z,54.80
2023-04-18T16:05:43.393Z,55.34
2023-04-18T16:06:47.306Z,53.96
2023-04-18T16:07:49.598Z,54.32
2023-04-18T16:08:52.046Z,55.15
2023-04-18T16:09:54.503Z,55.17
2023-04-18T16:10:56.990Z,56.02
2023-04-18T16:11:59.418Z,55.05
2023-04-18T16:13:01.906Z,55.43
2023-04-18T16:14:04.485Z,55.32
2023-04-18T16:15:08.683Z,54.89
2023-04-18T16:16:10.733Z,54.52
2023-04-18T16:17:13.053Z,55.07
2023-04-18T16:18:15.531Z,56.60
2023-04-18T16:19:19.590Z,56.84
2023-04-18T16:20:23.481Z,58.39
2023-04-18T16:21:27.386Z,57.43
2023-04-18T16:22:29.800Z,57.36
2023-04-18T16:23:32.236Z,57.68
2023-04-18T16:24:34.696Z,57.61
2023-04-18T16:25:37.077Z,59.52
2023-04-18T16:26:39.503Z,58.39
2023-04-18T16:27:44.674Z,59.18
2023-04-18T16:28:46.936Z,59.14
2023-04-18T16:29:49.431Z,59.14
2023-04-18T16:30:53.545Z,60.27
2023-04-18T16:31:54.471Z,60.27
2023-04-18T16:32:56.787Z,61.42
2023-04-18T16:33:59.277Z,63.08
2023-04-18T16:35:01.596Z,61.75
2023-04-18T16:36:04.093Z,62.54
2023-04-18T16:37:06.619Z,62.94
2023-04-18T16:38:10.433Z,62.06
2023-04-18T16:39:12.878Z,62.31
2023-04-18T16:40:15.165Z,61.80
2023-04-18T16:41:17.629Z,62.30
2023-04-18T16:42:20.087Z,61.70
2023-04-18T16:43:23.485Z,62.07
2023-04-18T16:44:25.835Z,61.95
2023-04-18T16:45:29.852Z,63.16
2023-04-18T16:46:33.732Z,62.32
2023-04-18T16:47:36.112Z,63.08
2023-04-18T16:48:38.492Z,62.58
2023-04-18T16:49:40.963Z,63.20
2023-04-18T16:50:44.370Z,62.86
2023-04-18T16:51:48.339Z,63.60
2023-04-18T16:52:50.587Z,63.39
2023-04-18T16:53:54.588Z,62.48
2023-04-18T16:54:57.174Z,63.30
2023-04-18T16:56:01.155Z,62.54
2023-04-18T16:57:03.515Z,63.61
2023-04-18T16:58:05.885Z,63.19
2023-04-18T16:59:08.335Z,64.06
2023-04-18T17:00:10.757Z,64.19
2023-04-18T17:01:13.204Z,64.72
2023-04-18T17:02:17.384Z,64.52
2023-04-18T17:03:19.580Z,64.00
2023-04-18T17:04:23.628Z,64.18
2023-04-18T17:05:25.876Z,64.27
2023-04-18T17:06:28.349Z,64.03
2023-04-18T17:07:30.800Z,64.05
2023-04-18T17:08:33.272Z,64.63
2023-04-18T17:09:35.738Z,64.79
2023-04-18T17:10:38.084Z,64.23
2023-04-18T17:11:40.541Z,64.65
2023-04-18T17:12:44.591Z,64.43
2023-04-18T17:13:46.862Z,64.15
2023-04-18T17:14:49.299Z,64.54
2023-04-18T17:15:51.778Z,64.51
2023-04-18T17:16:54.219Z,64.45
2023-04-18T17:17:58.283Z,64.49
2023-04-18T17:19:00.537Z,64.61
2023-04-18T17:20:02.984Z,64.78
2023-04-18T17:21:05.316Z,65.04
2023-04-18T17:22:09.459Z,65.77
2023-04-18T17:23:11.743Z,64.81
2023-04-18T17:24:16.765Z,65.25
2023-04-18T17:25:22.920Z,65.64
2023-04-18T17:27:38.473Z,65.13
2023-04-18T17:28:45.639Z,65.81
2023-04-18T17:29:50.337Z,63.90
2023-04-18T17:30:52.890Z,64.33
2023-04-18T17:31:56.875Z,64.29
2023-04-18T17:33:01.914Z,65.39
2023-04-18T17:34:04.188Z,64.79
2023-04-18T17:35:06.600Z,64.77
2023-04-18T17:36:09.006Z,64.70
2023-04-18T17:37:11.463Z,64.63
2023-04-18T17:38:13.803Z,64.89
2023-04-18T17:39:17.837Z,65.27
2023-04-18T17:40:20.191Z,65.24
2023-04-18T17:41:22.656Z,65.46
2023-04-18T17:42:26.626Z,65.03
2023-04-18T17:43:30.589Z,65.70
2023-04-18T17:44:32.934Z,65.82
2023-04-18T17:45:35.408Z,65.59
2023-04-18T17:46:39.444Z,65.00
2023-04-18T17:47:43.381Z,65.31
2023-04-18T17:48:45.688Z,65.33
2023-04-18T17:49:49.714Z,65.77
2023-04-18T17:50:52.111Z,65.61
2023-04-18T17:51:54.483Z,66.20
2023-04-18T17:52:56.998Z,66.27
2023-04-18T17:53:59.368Z,65.69
2023-04-18T17:55:01.836Z,65.69
2023-04-18T17:56:05.841Z,65.99
2023-04-18T17:57:08.113Z,66.26
2023-04-18T17:58:10.591Z,66.24
2023-04-18T17:59:13.074Z,66.31
2023-04-18T18:00:17.099Z,66.48
2023-04-18T18:01:19.396Z,66.79
2023-04-18T18:02:23.590Z,66.35
2023-04-18T18:03:27.640Z,66.61
2023-04-18T18:04:29.699Z,66.82
2023-04-18T18:05:33.640Z,66.64
2023-04-18T18:06:37.510Z,66.92
2023-04-18T18:07:39.803Z,67.04
2023-04-18T18:08:42.274Z,66.80
2023-04-18T18:18:14.551Z,68.35
2023-04-18T18:27:48.580Z,68.96
2023-04-18T18:37:23.549Z,70.05
2023-04-18T18:46:56.123Z,70.70
2023-04-18T18:56:29.686Z,71.21
2023-04-18T19:06:03.829Z,71.41
2023-04-18T19:15:39.237Z,71.89
2023-04-18T19:25:12.074Z,72.70
2023-04-18T19:34:44.038Z,73.11
2023-04-18T19:44:19.375Z,73.93
2023-04-18T19:53:51.309Z,74.88
2023-04-18T20:03:24.548Z,75.62
2023-04-18T20:12:58.333Z,76.48
2023-04-18T20:22:32.295Z,76.71
2023-04-18T20:32:07.613Z,77.01
2023-04-18T20:41:39.220Z,77.06
2023-04-18T20:51:15.066Z,77.32
2023-04-18T21:00:49.048Z,77.52
2023-04-18T21:10:20.083Z,78.12
2023-04-18T21:19:52.521Z,78.78
2023-04-18T21:29:29.189Z,79.36
2023-04-18T21:38:58.947Z,80.10
2023-04-18T21:48:32.356Z,81.11
2023-04-18T21:58:06.348Z,82.09
2023-04-18T22:07:50.376Z,82.86
2023-04-18T22:17:14.011Z,83.74
2023-04-18T22:26:47.676Z,83.83
2023-04-18T22:36:21.705Z,83.46
2023-04-18T22:45:55.686Z,85.40
2023-04-18T22:55:29.682Z,86.81
2023-04-18T23:05:03.579Z,86.34
2023-04-18T23:14:39.423Z,85.73
2023-04-18T23:24:11.972Z,86.02
2023-04-18T23:33:47.477Z,84.98
2023-04-18T23:43:20.638Z,85.32
2023-04-18T23:52:53.198Z,86.47
